Airfield :
LOGIN :

Register | Disclaimer

   EN    FR    IT 

 










Legend :    VFR   Marginal VFR   IFR   Intensive IFR   Very Intensive IFR
Visi :
Ceiling :
>= 8 km
>= 3000ft
5 to 8 km
1000 to 3000 ft
1500m to 5 km
500 to 1000 ft
800 to 1500m
200 to 500 ft
< 800m
< 200 ft
Symbols :   Thunderstorms  Fog  Heavy snow  Heavy precipitations  Wind > 20 kt
SIGMETs :     Misc.  Thunderstorms  Icing  Turbulence  Mountain Waves  Volcanic Ashes






- Airport Elevation : 18 ft


LIPC - Cervia AFB Ravenna

CURRENT METAR :
  • 230755Z 25009KT CAVOK 22/10 Q1016

EXPIRED METARs :
  • 230655Z 25007KT CAVOK 20/12 Q1017
  • 230555Z 10001KT CAVOK 17/12 Q1017 RMK FEW FEW200 VIS MIN 9999 WIND THR11 31001KT WIND THR29 30002KT BLU
  • 230455Z 29003KT CAVOK 14/10 Q1016
  • 230355Z 22001KT 9999 FEW040 11/10 Q1016
  • 230255Z 17002KT CAVOK 12/10 Q1016 RMK FEW FEW080 VIS MIN 9999 WIND THR11 19003KT WIND THR29 19001KT BLU

TAF TAF LIPC
Valid from the 23 at 06:00 until the 23 at 15:00 UTC


230500Z 2306/2315 26008KT 9999 FEW030
PROB30
TEMPO 2310/2315 5000 SHRA FEW025TCU SCT030
BECMG 2312/2314 09010KT



MET'MAP, your aeronautical weather chart ! - Copyright ORBIFLY December 2007 - Disclaimer

ORBIFLY MET'MAP TEAM :

Programming & Development : Alexandra Zaïnal
Original concept : Baudouin d'Aumeries
Technical & hardware support : Manuel Goepfert
Assistance : Marc-Olivier Méhu




SOURCES & CREDITS :

   NOAA